createdAt,value
2023-11-13T00:00:53.184Z,-1.61
2023-11-13T00:03:21.518Z,-1.56
2023-11-13T00:05:50.356Z,-1.54
2023-11-13T00:08:18.429Z,-1.57
2023-11-13T00:10:48.105Z,-1.56
2023-11-13T00:13:16.208Z,-1.55
2023-11-13T00:15:44.351Z,-1.50
2023-11-13T00:18:12.849Z,-1.51
2023-11-13T00:20:40.947Z,-1.50
2023-11-13T00:23:09.129Z,-1.47
2023-11-13T00:25:37.398Z,-1.44
2023-11-13T00:28:07.060Z,-1.43
2023-11-13T00:30:35.155Z,-1.50
2023-11-13T00:33:03.338Z,-1.54
2023-11-13T00:35:31.420Z,-1.53
2023-11-13T00:37:59.509Z,-1.49
2023-11-13T00:40:28.896Z,-1.50
2023-11-13T00:42:57.104Z,-1.49
2023-11-13T00:45:26.632Z,-1.49
2023-11-13T00:47:54.672Z,-1.54
2023-11-13T00:50:22.823Z,-1.56
2023-11-13T00:52:51.450Z,-1.50
2023-11-13T00:55:19.593Z,-1.49
2023-11-13T00:57:47.720Z,-1.49
2023-11-13T01:00:16.737Z,-1.57
2023-11-13T01:02:46.109Z,-1.55
2023-11-13T01:05:14.266Z,-1.56
2023-11-13T01:07:42.499Z,-1.61
2023-11-13T01:10:11.273Z,-1.57
2023-11-13T01:12:39.346Z,-1.56
2023-11-13T01:15:10.099Z,-1.57
2023-11-13T01:17:38.675Z,-1.54
2023-11-13T01:20:10.130Z,-1.54
2023-11-13T01:22:38.191Z,-1.52
2023-11-13T01:25:07.000Z,-1.53
2023-11-13T01:27:35.882Z,-1.51
2023-11-13T01:30:04.217Z,-1.54
2023-11-13T01:32:32.384Z,-1.49
2023-11-13T01:35:00.498Z,-1.53
2023-11-13T01:37:30.213Z,-1.53
2023-11-13T01:39:58.423Z,-1.53
2023-11-13T01:42:27.965Z,-1.50
2023-11-13T01:44:57.162Z,-1.48
2023-11-13T01:47:25.516Z,-1.45
2023-11-13T01:49:53.706Z,-1.42
2023-11-13T01:52:22.526Z,-1.49
2023-11-13T01:54:52.180Z,-1.52
2023-11-13T01:57:20.559Z,-1.53
2023-11-13T01:59:49.192Z,-1.51
2023-11-13T02:02:18.543Z,-1.50
2023-11-13T02:04:46.820Z,-1.51
2023-11-13T02:07:15.076Z,-1.46
2023-11-13T02:09:43.430Z,-1.42
2023-11-13T02:12:13.627Z,-1.39
2023-11-13T02:14:41.685Z,-1.36
2023-11-13T02:17:11.881Z,-1.38
2023-11-13T02:19:39.993Z,-1.37
2023-11-13T02:22:09.637Z,-1.39
2023-11-13T02:24:39.266Z,-1.38
2023-11-13T02:27:09.181Z,-1.33
2023-11-13T02:29:37.461Z,-1.33
2023-11-13T02:32:06.556Z,-1.36
2023-11-13T02:34:36.449Z,-1.36
2023-11-13T02:37:04.579Z,-1.36
2023-11-13T02:39:33.176Z,-1.32
2023-11-13T02:42:02.646Z,-1.29
2023-11-13T02:44:31.211Z,-1.26
2023-11-13T02:46:59.220Z,-1.28
2023-11-13T02:49:27.214Z,-1.24
2023-11-13T02:51:55.249Z,-1.31
2023-11-13T02:54:23.422Z,-1.32
2023-11-13T02:56:51.469Z,-1.30
2023-11-13T02:59:20.851Z,-1.29
2023-11-13T03:01:49.225Z,-1.29
2023-11-13T03:04:17.393Z,-1.24
2023-11-13T03:06:45.438Z,-1.26
2023-11-13T03:09:13.456Z,-1.22
2023-11-13T03:11:41.574Z,-1.26
2023-11-13T03:14:09.599Z,-1.30
2023-11-13T03:16:39.084Z,-1.29
2023-11-13T03:19:07.161Z,-1.27
2023-11-13T03:21:35.915Z,-1.27
2023-11-13T03:24:04.145Z,-1.26
2023-11-13T03:26:32.294Z,-1.22
2023-11-13T03:29:00.473Z,-1.21
2023-11-13T03:31:28.653Z,-1.26
2023-11-13T03:33:58.159Z,-1.28
2023-11-13T03:36:26.447Z,-1.30
2023-11-13T03:38:57.536Z,-1.31
2023-11-13T03:41:25.831Z,-1.26
2023-11-13T03:43:53.874Z,-1.31
2023-11-13T03:46:22.052Z,-1.32
2023-11-13T03:48:50.131Z,-1.31
2023-11-13T03:51:20.548Z,-1.32
2023-11-13T03:53:51.539Z,-1.31
2023-11-13T03:56:21.592Z,-1.34
2023-11-13T03:58:49.977Z,-1.29
2023-11-13T04:01:23.418Z,-1.30
2023-11-13T04:03:51.756Z,-1.33
2023-11-13T04:06:23.664Z,-1.31
2023-11-13T04:08:51.717Z,-1.33
2023-11-13T04:11:22.765Z,-1.33
2023-11-13T04:13:51.985Z,-1.30
2023-11-13T04:16:20.144Z,-1.25
2023-11-13T04:18:50.985Z,-1.21
2023-11-13T04:21:25.740Z,-1.22
2023-11-13T04:23:54.198Z,-1.19
2023-11-13T04:26:22.209Z,-1.25
2023-11-13T04:28:50.185Z,-1.18
2023-11-13T04:31:18.428Z,-1.14
2023-11-13T04:33:46.761Z,-1.10
2023-11-13T04:36:14.984Z,-1.12
2023-11-13T04:38:44.412Z,-1.16
2023-11-13T04:41:16.600Z,-1.15
2023-11-13T04:43:45.006Z,-1.18
2023-11-13T04:46:14.168Z,-1.15
2023-11-13T04:48:44.073Z,-1.15
2023-11-13T04:51:12.185Z,-1.15
2023-11-13T04:53:40.807Z,-1.11
2023-11-13T04:56:13.332Z,-1.14
2023-11-13T04:58:41.926Z,-1.17
2023-11-13T05:01:09.985Z,-1.19
2023-11-13T05:03:38.289Z,-1.18
2023-11-13T05:06:08.469Z,-1.17
2023-11-13T05:08:39.763Z,-1.17
2023-11-13T05:11:07.979Z,-1.16
2023-11-13T05:13:37.485Z,-1.15
2023-11-13T05:16:07.673Z,-1.19
2023-11-13T05:18:35.917Z,-1.21
2023-11-13T05:21:04.015Z,-1.20
2023-11-13T05:23:32.140Z,-1.25
2023-11-13T05:26:00.296Z,-1.24
2023-11-13T05:28:28.389Z,-1.26
2023-11-13T05:30:57.891Z,-1.28
2023-11-13T05:33:28.079Z,-1.28
2023-11-13T05:35:57.822Z,-1.29
2023-11-13T05:38:25.842Z,-1.25
2023-11-13T05:40:53.978Z,-1.27
2023-11-13T05:43:22.012Z,-1.26
2023-11-13T05:45:50.543Z,-1.26
2023-11-13T05:48:20.496Z,-1.27
2023-11-13T05:50:48.468Z,-1.31
2023-11-13T05:53:16.525Z,-1.32
2023-11-13T05:55:44.700Z,-1.33
2023-11-13T05:58:12.787Z,-1.32
2023-11-13T06:00:41.673Z,-1.36
2023-11-13T06:03:09.750Z,-1.37
2023-11-13T06:05:39.355Z,-1.34
2023-11-13T06:08:08.513Z,-1.36
2023-11-13T06:10:46.325Z,-1.36
2023-11-13T06:13:14.599Z,-1.37
2023-11-13T06:15:42.871Z,-1.38
2023-11-13T06:18:11.039Z,-1.38
2023-11-13T06:20:40.464Z,-1.35
2023-11-13T06:23:39.342Z,-1.33
2023-11-13T06:26:08.745Z,-1.30
2023-11-13T06:28:39.967Z,-1.28
2023-11-13T06:31:08.424Z,-1.31
2023-11-13T06:33:37.777Z,-1.27
2023-11-13T06:36:10.455Z,-1.26
2023-11-13T06:38:41.237Z,-1.24
2023-11-13T06:41:11.894Z,-1.18
2023-11-13T06:43:41.332Z,-1.21
2023-11-13T06:46:10.626Z,-1.15
2023-11-13T06:48:41.238Z,-1.20
2023-11-13T06:51:11.061Z,-1.18
2023-11-13T06:53:39.286Z,-1.18
2023-11-13T06:56:10.660Z,-1.21
2023-11-13T06:58:46.338Z,-1.18
2023-11-13T07:01:15.436Z,-1.15
2023-11-13T07:03:44.858Z,-1.12
2023-11-13T07:06:14.452Z,-1.20
2023-11-13T07:08:42.806Z,-1.17
2023-11-13T07:11:14.870Z,-1.16
2023-11-13T07:13:42.937Z,-1.14
2023-11-13T07:16:11.995Z,-1.15
2023-11-13T07:18:40.191Z,-1.16
2023-11-13T07:21:08.602Z,-1.23
2023-11-13T07:23:44.906Z,-1.28
2023-11-13T07:26:13.121Z,-1.34
2023-11-13T07:28:41.315Z,-1.35
2023-11-13T07:31:12.811Z,-1.30
2023-11-13T07:33:42.164Z,-1.30
2023-11-13T07:36:12.759Z,-1.32
2023-11-13T07:38:44.667Z,-1.34
2023-11-13T07:41:13.370Z,-1.36
2023-11-13T07:43:41.828Z,-1.37
2023-11-13T07:46:10.999Z,-1.44
2023-11-13T07:48:39.962Z,-1.45
2023-11-13T07:51:08.973Z,-1.48
2023-11-13T07:53:39.524Z,-1.49
2023-11-13T07:56:14.915Z,-1.64
2023-11-13T07:58:44.026Z,-1.68
2023-11-13T08:01:13.185Z,-1.73
2023-11-13T08:03:43.491Z,-1.81
2023-11-13T08:06:14.514Z,-1.86
2023-11-13T08:08:42.595Z,-1.87
2023-11-13T08:11:15.590Z,-1.91
2023-11-13T08:13:43.776Z,-1.86
2023-11-13T08:16:12.089Z,-1.93
2023-11-13T08:18:41.434Z,-1.91
2023-11-13T08:21:11.721Z,-1.85
2023-11-13T08:23:39.835Z,-1.78
2023-11-13T08:26:16.093Z,-1.78
2023-11-13T08:28:45.685Z,-1.79
2023-11-13T08:31:17.661Z,-1.80
2023-11-13T08:33:49.200Z,-1.81
2023-11-13T08:36:18.677Z,-1.86
2023-11-13T08:38:46.654Z,-1.83
2023-11-13T08:41:16.028Z,-1.74
2023-11-13T08:43:46.435Z,-1.75
2023-11-13T08:46:15.184Z,-1.83
2023-11-13T08:48:46.067Z,-1.73
2023-11-13T08:51:16.772Z,-1.69
2023-11-13T08:53:44.846Z,-1.67
2023-11-13T08:56:16.710Z,-1.63
2023-11-13T08:58:46.664Z,-1.65
2023-11-13T09:01:16.989Z,-1.61
2023-11-13T09:03:48.031Z,-1.55
2023-11-13T09:06:18.405Z,-1.56
2023-11-13T09:08:49.365Z,-1.47
2023-11-13T09:11:21.181Z,-1.40
2023-11-13T09:13:52.674Z,-1.28
2023-11-13T09:16:24.446Z,-1.28
2023-11-13T09:18:56.363Z,-1.30
2023-11-13T09:21:24.405Z,-1.26
2023-11-13T09:23:52.713Z,-1.21
2023-11-13T09:26:21.256Z,-1.20
2023-11-13T09:28:50.765Z,-1.20
2023-11-13T09:31:19.275Z,-1.24
2023-11-13T09:33:49.795Z,-1.12
2023-11-13T09:36:18.658Z,-1.07
2023-11-13T09:38:46.727Z,-1.06
2023-11-13T09:41:20.131Z,-1.06
2023-11-13T09:43:48.892Z,-1.14
2023-11-13T09:46:21.766Z,-1.07
2023-11-13T09:48:53.471Z,-1.04
2023-11-13T09:51:29.927Z,-1.03
2023-11-13T09:54:00.422Z,-1.08
2023-11-13T09:56:31.723Z,-0.98
2023-11-13T09:59:03.752Z,-0.93
2023-11-13T10:01:39.922Z,-0.92
2023-11-13T10:04:11.423Z,-0.99
2023-11-13T10:06:42.613Z,-0.98
2023-11-13T10:09:11.982Z,-0.85
2023-11-13T10:11:40.105Z,-0.77
2023-11-13T10:14:15.182Z,-0.79
2023-11-13T10:16:54.054Z,-0.81
2023-11-13T10:19:22.697Z,-0.85
2023-11-13T10:21:54.163Z,-0.93
2023-11-13T10:24:37.676Z,-0.94
2023-11-13T10:27:14.318Z,-0.90
2023-11-13T10:29:44.705Z,-0.87
2023-11-13T10:32:18.138Z,-0.90
2023-11-13T10:34:50.646Z,-0.90
2023-11-13T10:37:19.705Z,-0.95
2023-11-13T10:39:49.034Z,-0.98
2023-11-13T10:42:20.245Z,-1.03
2023-11-13T10:44:48.722Z,-1.09
2023-11-13T10:47:27.381Z,-1.12
2023-11-13T10:49:56.817Z,-1.02
2023-11-13T10:52:25.578Z,-1.01
2023-11-13T10:54:56.445Z,-1.00
2023-11-13T10:57:27.882Z,-0.94
2023-11-13T10:59:57.975Z,-1.00
2023-11-13T11:02:40.034Z,-1.06
2023-11-13T11:05:12.273Z,-1.10
2023-11-13T11:07:43.353Z,-1.13
2023-11-13T11:10:11.949Z,-1.10
2023-11-13T11:12:49.368Z,-0.99
2023-11-13T11:15:33.480Z,-0.89
2023-11-13T11:18:17.487Z,-0.98
2023-11-13T11:20:53.899Z,-0.99
2023-11-13T11:23:24.723Z,-0.97
2023-11-13T11:25:54.859Z,-1.00
2023-11-13T11:28:46.383Z,-0.98
2023-11-13T11:31:54.486Z,-1.02
2023-11-13T11:34:24.980Z,-0.99
2023-11-13T11:36:57.885Z,-1.05
2023-11-13T11:39:26.848Z,-1.10
2023-11-13T11:41:56.964Z,-1.09
2023-11-13T11:44:29.234Z,-1.07
2023-11-13T11:47:05.633Z,-1.11
2023-11-13T11:49:46.208Z,-1.09
2023-11-13T11:52:14.470Z,-1.11
2023-11-13T11:54:42.664Z,-1.12
2023-11-13T11:57:18.467Z,-1.12
2023-11-13T11:59:49.393Z,-1.09
2023-11-13T12:02:20.918Z,-1.02
2023-11-13T12:04:52.812Z,-0.93
2023-11-13T12:07:21.053Z,-0.86
2023-11-13T12:09:52.425Z,-0.88
2023-11-13T12:12:21.953Z,-0.99
2023-11-13T12:14:51.367Z,-1.03
2023-11-13T12:17:22.295Z,-1.00
2023-11-13T12:19:57.236Z,-1.03
2023-11-13T12:22:35.346Z,-1.04
2023-11-13T12:25:05.415Z,-1.07
2023-11-13T12:27:34.429Z,-1.03
2023-11-13T12:30:04.594Z,-1.07
2023-11-13T12:32:36.518Z,-1.05
2023-11-13T12:35:08.761Z,-1.09
2023-11-13T12:37:41.680Z,-1.14
2023-11-13T12:40:15.643Z,-1.17
2023-11-13T12:42:47.014Z,-1.10
2023-11-13T12:45:21.870Z,-0.98
2023-11-13T12:47:51.237Z,-1.01
2023-11-13T12:50:25.056Z,-1.02
2023-11-13T12:53:01.087Z,-1.03
2023-11-13T12:55:29.477Z,-0.89
2023-11-13T12:57:59.379Z,-0.87
2023-11-13T13:00:28.749Z,-0.90
2023-11-13T13:02:57.147Z,-0.92
2023-11-13T13:05:32.533Z,-0.93
2023-11-13T13:08:08.000Z,-0.89
2023-11-13T13:10:39.105Z,-0.85
2023-11-13T13:13:09.582Z,-0.81
2023-11-13T13:15:40.405Z,-0.87
2023-11-13T13:18:08.479Z,-0.98
2023-11-13T13:20:38.397Z,-1.01
2023-11-13T13:23:07.676Z,-1.04
2023-11-13T13:25:38.808Z,-1.04
2023-11-13T13:28:08.479Z,-0.98
2023-11-13T13:30:38.218Z,-1.03
2023-11-13T13:33:11.289Z,-1.05
2023-11-13T13:35:42.039Z,-1.06
2023-11-13T13:38:17.655Z,-0.99
2023-11-13T13:40:46.806Z,-1.03
2023-11-13T13:43:15.185Z,-1.02
2023-11-13T13:45:51.682Z,-0.99
2023-11-13T13:48:19.821Z,-1.00
2023-11-13T13:50:52.650Z,-1.08
2023-11-13T13:53:25.278Z,-1.13
2023-11-13T13:55:53.458Z,-1.19
2023-11-13T13:58:26.709Z,-1.17
2023-11-13T14:00:55.320Z,-1.20
2023-11-13T14:03:23.796Z,-1.14
2023-11-13T14:05:53.256Z,-1.17
2023-11-13T14:08:25.948Z,-1.11
2023-11-13T14:10:54.698Z,-1.09
2023-11-13T14:13:26.410Z,-1.01
2023-11-13T14:16:04.934Z,-1.01
2023-11-13T14:18:39.743Z,-0.99
2023-11-13T14:21:12.342Z,-1.01
2023-11-13T14:23:43.407Z,-1.08
2023-11-13T14:26:16.258Z,-1.04
2023-11-13T14:28:44.808Z,-1.03
2023-11-13T14:31:12.972Z,-1.01
2023-11-13T14:33:45.238Z,-1.05
2023-11-13T14:36:18.020Z,-0.99
2023-11-13T14:38:49.101Z,-1.09
2023-11-13T14:41:17.162Z,-1.10
2023-11-13T14:43:45.249Z,-1.11
2023-11-13T14:46:13.732Z,-1.17
2023-11-13T14:48:41.909Z,-1.17
2023-11-13T14:51:11.859Z,-1.11
2023-11-13T14:53:42.009Z,-1.14
2023-11-13T14:56:16.100Z,-1.13
2023-11-13T14:58:44.206Z,-1.09
2023-11-13T15:01:12.961Z,-1.09
2023-11-13T15:03:44.442Z,-1.18
2023-11-13T15:06:12.557Z,-1.21
2023-11-13T15:08:42.771Z,-1.19
2023-11-13T15:11:13.916Z,-1.22
2023-11-13T15:13:42.437Z,-1.22
2023-11-13T15:16:11.976Z,-1.26
2023-11-13T15:18:47.807Z,-1.27
2023-11-13T15:21:19.430Z,-1.23
2023-11-13T15:23:56.526Z,-1.26
2023-11-13T15:26:24.676Z,-1.31
2023-11-13T15:28:52.821Z,-1.32
2023-11-13T15:31:25.610Z,-1.33
2023-11-13T15:33:53.928Z,-1.39
2023-11-13T15:36:23.557Z,-1.49
2023-11-13T15:38:53.022Z,-1.45
2023-11-13T15:41:24.573Z,-1.47
2023-11-13T15:43:54.477Z,-1.49
2023-11-13T15:46:23.035Z,-1.47
2023-11-13T15:48:51.182Z,-1.45
2023-11-13T15:51:27.307Z,-1.46
2023-11-13T15:53:59.777Z,-1.48
2023-11-13T15:56:27.911Z,-1.49
2023-11-13T15:58:55.985Z,-1.53
2023-11-13T16:01:31.607Z,-1.53
2023-11-13T16:04:07.303Z,-1.52
2023-11-13T16:06:38.176Z,-1.56
2023-11-13T16:09:13.673Z,-1.51
2023-11-13T16:11:41.962Z,-1.50
2023-11-13T16:14:10.427Z,-1.42
2023-11-13T16:16:41.270Z,-1.43
2023-11-13T16:19:09.527Z,-1.48
2023-11-13T16:21:37.591Z,-1.44
2023-11-13T16:24:07.821Z,-1.39
2023-11-13T16:26:41.424Z,-1.45
2023-11-13T16:29:10.000Z,-1.43
2023-11-13T16:31:38.356Z,-1.34
2023-11-13T16:34:10.033Z,-1.41
2023-11-13T16:36:38.052Z,-1.39
2023-11-13T16:39:14.768Z,-1.41
2023-11-13T16:41:43.022Z,-1.41
2023-11-13T16:44:11.714Z,-1.36
2023-11-13T16:46:40.336Z,-1.36
2023-11-13T16:49:16.235Z,-1.34
2023-11-13T16:51:45.946Z,-1.36
2023-11-13T16:54:17.549Z,-1.34
2023-11-13T16:56:45.611Z,-1.35
2023-11-13T16:59:16.778Z,-1.31
2023-11-13T17:01:44.882Z,-1.34
2023-11-13T17:04:15.980Z,-1.37
2023-11-13T17:06:44.604Z,-1.34
2023-11-13T17:09:17.009Z,-1.39
2023-11-13T17:11:49.488Z,-1.44
2023-11-13T17:14:18.658Z,-1.41
2023-11-13T17:16:52.627Z,-1.38
2023-11-13T17:19:29.817Z,-1.41
2023-11-13T17:21:58.058Z,-1.38
2023-11-13T17:24:26.243Z,-1.36
2023-11-13T17:26:58.608Z,-1.34
2023-11-13T17:29:30.870Z,-1.37
2023-11-13T17:31:58.961Z,-1.38
2023-11-13T17:34:29.163Z,-1.43
2023-11-13T17:37:04.457Z,-1.41
2023-11-13T17:39:37.643Z,-1.46
2023-11-13T17:42:09.681Z,-1.48
2023-11-13T17:44:37.945Z,-1.50
2023-11-13T17:47:06.560Z,-1.54
2023-11-13T17:49:34.836Z,-1.56
2023-11-13T17:52:04.960Z,-1.61
2023-11-13T17:54:33.053Z,-1.59
2023-11-13T17:57:06.800Z,-1.62
2023-11-13T17:59:37.485Z,-1.64
2023-11-13T18:02:07.300Z,-1.63
2023-11-13T18:04:40.085Z,-1.65
2023-11-13T18:07:09.015Z,-1.66
2023-11-13T18:09:39.792Z,-1.67
2023-11-13T18:12:09.408Z,-1.73
2023-11-13T18:14:39.429Z,-1.76
2023-11-13T18:17:08.431Z,-1.79
2023-11-13T18:19:54.012Z,-1.84
2023-11-13T18:22:22.099Z,-1.84
2023-11-13T18:24:50.196Z,-1.82
2023-11-13T18:27:18.262Z,-1.82
2023-11-13T18:29:51.472Z,-1.92
2023-11-13T18:32:19.695Z,-1.93
2023-11-13T18:34:47.745Z,-1.98
2023-11-13T18:37:15.768Z,-2.00
2023-11-13T18:39:43.998Z,-1.99
2023-11-13T18:42:16.238Z,-1.97
2023-11-13T18:44:44.453Z,-1.98
2023-11-13T18:47:14.099Z,-2.06
2023-11-13T18:49:42.273Z,-2.10
2023-11-13T18:52:10.339Z,-2.11
2023-11-13T18:54:40.124Z,-2.10
2023-11-13T18:57:13.494Z,-2.08
2023-11-13T18:59:42.283Z,-2.05
2023-11-13T19:02:13.409Z,-2.03
2023-11-13T19:04:45.492Z,-2.00
2023-11-13T19:07:15.571Z,-1.95
2023-11-13T19:09:46.396Z,-2.04
2023-11-13T19:12:15.538Z,-2.02
2023-11-13T19:14:43.526Z,-2.04
2023-11-13T19:17:12.337Z,-2.04
2023-11-13T19:19:40.467Z,-1.99
2023-11-13T19:22:09.879Z,-1.94
2023-11-13T19:24:38.121Z,-1.97
2023-11-13T19:27:06.673Z,-1.94
2023-11-13T19:29:34.896Z,-1.92
2023-11-13T19:32:02.877Z,-1.93
2023-11-13T19:34:34.992Z,-1.82
2023-11-13T19:37:05.956Z,-1.89
2023-11-13T19:39:36.283Z,-1.86
2023-11-13T19:42:05.233Z,-1.86
2023-11-13T19:44:43.972Z,-1.85
2023-11-13T19:47:16.322Z,-1.82
2023-11-13T19:49:44.419Z,-1.77
2023-11-13T19:52:12.535Z,-1.81
2023-11-13T19:54:50.641Z,-1.78
2023-11-13T19:57:18.666Z,-1.72
2023-11-13T19:59:47.712Z,-1.68
2023-11-13T20:02:24.398Z,-1.73
2023-11-13T20:04:53.832Z,-1.75
2023-11-13T20:07:22.911Z,-1.73
2023-11-13T20:09:55.247Z,-1.70
2023-11-13T20:12:23.452Z,-1.71
2023-11-13T20:14:54.317Z,-1.66
2023-11-13T20:17:25.019Z,-1.66
2023-11-13T20:19:56.661Z,-1.67
2023-11-13T20:22:27.568Z,-1.68
2023-11-13T20:24:59.018Z,-1.62
2023-11-13T20:27:27.125Z,-1.67
2023-11-13T20:30:04.439Z,-1.62
2023-11-13T20:32:36.861Z,-1.58
2023-11-13T20:35:06.130Z,-1.54
2023-11-13T20:37:35.648Z,-1.57
2023-11-13T20:40:07.175Z,-1.53
2023-11-13T20:42:36.769Z,-1.49
2023-11-13T20:45:06.141Z,-1.52
2023-11-13T20:47:37.437Z,-1.52
2023-11-13T20:50:06.736Z,-1.49
2023-11-13T20:52:37.652Z,-1.50
2023-11-13T20:55:07.603Z,-1.52
2023-11-13T20:57:37.698Z,-1.51
2023-11-13T21:00:08.580Z,-1.50
2023-11-13T21:02:37.021Z,-1.46
2023-11-13T21:05:07.469Z,-1.45
2023-11-13T21:07:36.288Z,-1.44
2023-11-13T21:10:04.866Z,-1.46
2023-11-13T21:12:37.315Z,-1.46
2023-11-13T21:15:09.950Z,-1.52
2023-11-13T21:17:38.195Z,-1.53
2023-11-13T21:20:11.179Z,-1.53
2023-11-13T21:22:45.782Z,-1.54
2023-11-13T21:25:15.912Z,-1.52
2023-11-13T21:27:45.868Z,-1.47
2023-11-13T21:30:18.926Z,-1.50
2023-11-13T21:32:47.225Z,-1.56
2023-11-13T21:35:15.332Z,-1.61
2023-11-13T21:37:48.602Z,-1.62
2023-11-13T21:40:16.958Z,-1.64
2023-11-13T21:42:47.419Z,-1.62
2023-11-13T21:45:18.233Z,-1.62
2023-11-13T21:47:47.092Z,-1.65
2023-11-13T21:50:15.349Z,-1.63
2023-11-13T21:52:44.315Z,-1.71
2023-11-13T21:55:12.903Z,-1.71
2023-11-13T21:57:47.355Z,-1.71
2023-11-13T22:00:19.136Z,-1.73
2023-11-13T22:02:48.287Z,-1.76
2023-11-13T22:05:19.309Z,-1.77
2023-11-13T22:07:47.388Z,-1.79
2023-11-13T22:10:15.475Z,-1.82
2023-11-13T22:12:43.529Z,-1.80
2023-11-13T22:15:22.834Z,-1.83
2023-11-13T22:17:51.064Z,-1.86
2023-11-13T22:20:23.159Z,-1.86
2023-11-13T22:22:52.290Z,-1.90
2023-11-13T22:25:20.564Z,-1.90
2023-11-13T22:27:54.114Z,-1.92
2023-11-13T22:30:23.499Z,-1.92
2023-11-13T22:32:51.769Z,-1.98
2023-11-13T22:35:19.864Z,-2.02
2023-11-13T22:37:48.305Z,-2.08
2023-11-13T22:40:16.399Z,-2.06
2023-11-13T22:42:44.627Z,-2.12
2023-11-13T22:45:12.846Z,-2.09
2023-11-13T22:47:45.285Z,-2.12
2023-11-13T22:50:13.371Z,-2.17
2023-11-13T22:52:41.477Z,-2.23
2023-11-13T22:55:10.545Z,-2.26
2023-11-13T22:57:38.494Z,-2.30
2023-11-13T23:00:11.538Z,-2.31
2023-11-13T23:02:39.757Z,-2.37
2023-11-13T23:05:09.897Z,-2.36
2023-11-13T23:07:39.955Z,-2.35
2023-11-13T23:10:08.530Z,-2.32
2023-11-13T23:12:36.612Z,-2.39
2023-11-13T23:15:11.322Z,-2.38
2023-11-13T23:17:40.910Z,-2.44
2023-11-13T23:20:14.855Z,-2.39
2023-11-13T23:22:43.205Z,-2.37
2023-11-13T23:25:12.350Z,-2.38
2023-11-13T23:27:40.680Z,-2.33
2023-11-13T23:30:10.570Z,-2.32
2023-11-13T23:32:38.660Z,-2.37
2023-11-13T23:35:16.024Z,-2.40
2023-11-13T23:37:49.077Z,-2.39
2023-11-13T23:40:19.746Z,-2.34
2023-11-13T23:42:47.809Z,-2.32
2023-11-13T23:45:17.095Z,-2.32
2023-11-13T23:47:50.127Z,-2.34
2023-11-13T23:50:19.171Z,-2.34
2023-11-13T23:52:50.572Z,-2.36
2023-11-13T23:55:19.348Z,-2.35
2023-11-13T23:57:47.416Z,-2.33
